Time;durP1;ratioP1;P1;durP2;ratioP2;P2;SDS_P1;SDS_P2;PMS_P1;PMS_P2;Temp;Humidity;BMP_temperature;BMP_pressure;BME280_temperature;BME280_humidity;BME280_pressure;Samples;Min_cycle;Max_cycle;Signal;HPM_P1;HPM_P2
2023/03/20 00:01:13;;;;;;;0.20;0.10;;;;;;;;;;4977753;28;20046;-76
2023/03/20 00:03:40;;;;;;;0.20;0.10;;;;;;;;;;4989487;28;20043;-76
2023/03/20 00:06:11;;;;;;;0.30;0.30;;;;;;;;;;4985800;28;20057;-77
2023/03/20 00:08:38;;;;;;;0.40;0.20;;;;;;;;;;4971349;28;20420;-77
2023/03/20 00:11:04;;;;;;;0.20;0.10;;;;;;;;;;4965391;28;20990;-76
2023/03/20 00:13:30;;;;;;;0.20;0.10;;;;;;;;;;4988544;28;20038;-76
2023/03/20 00:15:56;;;;;;;0.20;0.10;;;;;;;;;;4961519;28;20700;-76
2023/03/20 00:18:24;;;;;;;0.20;0.20;;;;;;;;;;4968948;28;20026;-76
2023/03/20 00:20:50;;;;;;;0.20;0.00;;;;;;;;;;4964670;28;20046;-76
2023/03/20 00:23:17;;;;;;;0.20;0.10;;;;;;;;;;4970170;28;20067;-76
2023/03/20 00:25:44;;;;;;;0.28;0.28;;;;;;;;;;4965185;28;20034;-76
2023/03/20 00:28:29;;;;;;;0.20;0.10;;;;;;;;;;4967958;28;20059;-77
2023/03/20 00:30:55;;;;;;;0.63;0.15;;;;;;;;;;4968546;28;20061;-76
2023/03/20 00:33:21;;;;;;;0.20;0.10;;;;;;;;;;4966249;28;20039;-76
2023/03/20 00:35:47;;;;;;;0.20;0.10;;;;;;;;;;4968906;28;20046;-76
2023/03/20 00:38:13;;;;;;;0.20;0.10;;;;;;;;;;4971470;28;20030;-76
2023/03/20 00:40:40;;;;;;;0.20;0.20;;;;;;;;;;4969217;28;20751;-76
2023/03/20 00:43:06;;;;;;;0.38;0.13;;;;;;;;;;4957067;28;20066;-76
2023/03/20 00:45:33;;;;;;;3.35;0.40;;;;;;;;;;4969244;28;20057;-76
2023/03/20 00:48:00;;;;;;;0.20;0.00;;;;;;;;;;4974044;28;20069;-76
2023/03/20 00:50:28;;;;;;;0.20;0.00;;;;;;;;;;4974601;28;20519;-77
2023/03/20 00:52:55;;;;;;;0.20;0.10;;;;;;;;;;4964916;28;20042;-76
2023/03/20 00:55:22;;;;;;;0.20;0.10;;;;;;;;;;4969669;28;20415;-75
2023/03/20 00:57:54;;;;;;;0.20;0.10;;;;;;;;;;4970726;28;20042;-76
2023/03/20 01:00:31;;;;;;;0.20;0.10;;;;;;;;;;4964938;28;20054;-75
2023/03/20 01:02:57;;;;;;;2.17;1.00;;;;;;;;;;4979606;28;20122;-76
2023/03/20 01:05:25;;;;;;;0.20;0.10;;;;;;;;;;4970271;28;20065;-76
2023/03/20 01:07:51;;;;;;;0.20;0.10;;;;;;;;;;4956800;28;20546;-76
2023/03/20 01:10:17;;;;;;;0.20;0.10;;;;;;;;;;4984139;28;20418;-76
2023/03/20 01:12:44;;;;;;;0.20;0.10;;;;;;;;;;4979290;28;20034;-77
2023/03/20 01:15:18;;;;;;;0.20;0.08;;;;;;;;;;4965939;28;20093;-76
2023/03/20 01:17:44;;;;;;;0.20;0.10;;;;;;;;;;4970897;28;20049;-77
2023/03/20 01:20:14;;;;;;;0.20;0.10;;;;;;;;;;4962664;28;20109;-77
2023/03/20 01:22:40;;;;;;;0.20;0.00;;;;;;;;;;4963449;28;20598;-76
2023/03/20 01:25:07;;;;;;;0.20;0.00;;;;;;;;;;4980828;28;20034;-77
2023/03/20 01:27:33;;;;;;;0.20;0.00;;;;;;;;;;4970698;28;20042;-77
2023/03/20 01:29:59;;;;;;;0.20;0.10;;;;;;;;;;4967371;28;20490;-77
2023/03/20 01:32:25;;;;;;;0.20;0.10;;;;;;;;;;4960355;28;20069;-76
2023/03/20 01:34:52;;;;;;;0.20;0.03;;;;;;;;;;4967639;28;20034;-77
2023/03/20 01:37:22;;;;;;;4.68;0.20;;;;;;;;;;4953692;28;20412;-76
2023/03/20 01:39:48;;;;;;;0.20;0.00;;;;;;;;;;4976484;28;20035;-76
2023/03/20 01:42:15;;;;;;;0.20;0.10;;;;;;;;;;4975843;28;20053;-76
2023/03/20 01:44:42;;;;;;;0.20;0.10;;;;;;;;;;4971546;28;20042;-76
2023/03/20 01:47:15;;;;;;;0.20;0.10;;;;;;;;;;4963709;28;22755;-76
2023/03/20 01:50:22;;;;;;;0.20;0.15;;;;;;;;;;4983513;28;20034;-76
2023/03/20 01:52:51;;;;;;;0.20;0.10;;;;;;;;;;4928421;28;20468;-76
2023/03/20 01:55:17;;;;;;;0.20;0.10;;;;;;;;;;4928478;28;20074;-75
2023/03/20 01:57:43;;;;;;;0.20;0.10;;;;;;;;;;4931485;28;20581;-76
2023/03/20 02:00:10;;;;;;;0.20;0.10;;;;;;;;;;4966980;28;20125;-76
2023/03/20 02:02:37;;;;;;;0.20;0.10;;;;;;;;;;4965068;28;20049;-77
2023/03/20 02:05:06;;;;;;;0.20;0.10;;;;;;;;;;4965570;28;20059;-76
2023/03/20 02:07:34;;;;;;;0.20;0.10;;;;;;;;;;4962286;28;20038;-77
2023/03/20 02:10:02;;;;;;;0.20;0.10;;;;;;;;;;4963415;28;20054;-76
2023/03/20 02:12:28;;;;;;;0.20;0.10;;;;;;;;;;4965725;28;20453;-76
2023/03/20 02:14:54;;;;;;;0.20;0.10;;;;;;;;;;4971000;28;20576;-77
2023/03/20 02:17:21;;;;;;;0.20;0.10;;;;;;;;;;4968109;28;20114;-76
2023/03/20 02:19:53;;;;;;;0.20;0.03;;;;;;;;;;4971269;28;20407;-76
2023/03/20 02:22:22;;;;;;;0.20;0.10;;;;;;;;;;4963808;28;20166;-76
2023/03/20 02:25:14;;;;;;;5.82;0.65;;;;;;;;;;4969609;28;20297;-76
2023/03/20 02:27:46;;;;;;;0.20;0.10;;;;;;;;;;4962136;28;20404;-76
2023/03/20 02:30:18;;;;;;;0.68;0.40;;;;;;;;;;4968774;28;20082;-76
2023/03/20 02:32:53;;;;;;;0.20;0.10;;;;;;;;;;4962874;28;20043;-77
2023/03/20 02:35:28;;;;;;;0.20;0.15;;;;;;;;;;4971671;28;20118;-75
2023/03/20 02:38:13;;;;;;;0.20;0.10;;;;;;;;;;4972061;28;20185;-76
2023/03/20 02:40:47;;;;;;;0.20;0.10;;;;;;;;;;4969207;28;20093;-75
2023/03/20 02:43:32;;;;;;;0.20;0.10;;;;;;;;;;4965233;28;20046;-76
2023/03/20 02:46:34;;;;;;;0.20;0.10;;;;;;;;;;4960536;28;20543;-77
2023/03/20 02:49:09;;;;;;;0.20;0.10;;;;;;;;;;4908990;29;20050;-77
2023/03/20 02:51:39;;;;;;;0.20;0.00;;;;;;;;;;4950052;28;20610;-77
2023/03/20 02:54:24;;;;;;;0.40;0.30;;;;;;;;;;4967581;28;20052;-76
2023/03/20 02:57:04;;;;;;;0.20;0.10;;;;;;;;;;4962441;28;20045;-76
2023/03/20 02:59:42;;;;;;;0.20;0.10;;;;;;;;;;4965237;28;20034;-75
2023/03/20 03:02:12;;;;;;;0.20;0.10;;;;;;;;;;4960834;28;20817;-76
2023/03/20 03:04:41;;;;;;;0.20;0.20;;;;;;;;;;4967182;28;20459;-76
2023/03/20 03:07:09;;;;;;;0.35;0.32;;;;;;;;;;4948035;28;20086;-76
2023/03/20 03:09:39;;;;;;;0.20;0.10;;;;;;;;;;4960294;28;20499;-76
2023/03/20 03:12:08;;;;;;;0.20;0.10;;;;;;;;;;4966563;28;20042;-76
2023/03/20 03:14:47;;;;;;;0.20;0.10;;;;;;;;;;4966984;28;20042;-76
2023/03/20 03:17:14;;;;;;;0.20;0.10;;;;;;;;;;4966711;28;20042;-76
2023/03/20 03:19:42;;;;;;;1.38;1.27;;;;;;;;;;4969064;28;20046;-77
2023/03/20 03:22:08;;;;;;;0.20;0.20;;;;;;;;;;4965120;28;20403;-77
2023/03/20 03:24:35;;;;;;;0.50;0.43;;;;;;;;;;4960600;28;20070;-77
2023/03/20 03:27:03;;;;;;;0.32;0.25;;;;;;;;;;4983049;28;20141;-76
2023/03/20 03:29:31;;;;;;;0.77;0.30;;;;;;;;;;4959514;28;20042;-76
2023/03/20 03:31:57;;;;;;;0.47;0.30;;;;;;;;;;4961985;28;20133;-77
2023/03/20 03:34:24;;;;;;;0.93;0.77;;;;;;;;;;4962406;28;20046;-76
2023/03/20 03:36:53;;;;;;;0.20;0.10;;;;;;;;;;4971015;28;20049;-77
2023/03/20 03:39:19;;;;;;;0.20;0.10;;;;;;;;;;4966913;28;20523;-76
2023/03/20 03:41:45;;;;;;;0.45;0.25;;;;;;;;;;4963542;28;20043;-76
2023/03/20 03:44:11;;;;;;;0.65;0.40;;;;;;;;;;4959715;28;20663;-76
2023/03/20 03:46:37;;;;;;;0.20;0.00;;;;;;;;;;4971811;28;20034;-77
2023/03/20 03:49:04;;;;;;;0.20;0.20;;;;;;;;;;4964557;28;20530;-77
2023/03/20 03:51:32;;;;;;;0.20;0.10;;;;;;;;;;4969245;28;20034;-76
2023/03/20 03:54:07;;;;;;;0.20;0.10;;;;;;;;;;4951743;28;20519;-77
2023/03/20 03:56:33;;;;;;;0.75;0.30;;;;;;;;;;4963413;28;20043;-76
2023/03/20 03:59:02;;;;;;;0.80;0.80;;;;;;;;;;4963949;28;20091;-77
2023/03/20 04:01:29;;;;;;;0.63;0.63;;;;;;;;;;4962657;28;20535;-76
2023/03/20 04:03:56;;;;;;;0.20;0.10;;;;;;;;;;4957058;28;20518;-77
2023/03/20 04:06:22;;;;;;;0.40;0.20;;;;;;;;;;4963915;28;20039;-75
2023/03/20 04:08:48;;;;;;;0.38;0.17;;;;;;;;;;4950400;28;20034;-76
2023/03/20 04:11:23;;;;;;;0.50;0.40;;;;;;;;;;4972413;28;20129;-76
2023/03/20 04:13:49;;;;;;;0.20;0.20;;;;;;;;;;4966658;28;20049;-76
2023/03/20 04:16:16;;;;;;;0.20;0.10;;;;;;;;;;4969533;28;20042;-76
2023/03/20 04:18:42;;;;;;;0.30;0.20;;;;;;;;;;4957413;28;20041;-75
2023/03/20 04:21:09;;;;;;;0.20;0.10;;;;;;;;;;4969209;28;20447;-76
2023/03/20 04:23:35;;;;;;;0.20;0.10;;;;;;;;;;4965754;28;20434;-76
2023/03/20 04:26:02;;;;;;;0.52;0.35;;;;;;;;;;4974617;28;20038;-75
2023/03/20 04:28:28;;;;;;;0.60;0.60;;;;;;;;;;4972053;28;20042;-76
2023/03/20 04:30:55;;;;;;;0.20;0.10;;;;;;;;;;4966618;28;20096;-76
2023/03/20 04:33:22;;;;;;;0.20;0.10;;;;;;;;;;4969029;28;20400;-75
2023/03/20 04:35:48;;;;;;;0.20;0.10;;;;;;;;;;4973890;28;20092;-75
2023/03/20 04:38:14;;;;;;;1.67;1.58;;;;;;;;;;4973651;28;20034;-76
2023/03/20 04:40:40;;;;;;;0.20;0.10;;;;;;;;;;4970251;28;20050;-75
2023/03/20 04:43:06;;;;;;;0.20;0.10;;;;;;;;;;5032472;22;20054;-82
2023/03/20 04:45:32;;;;;;;0.73;0.73;;;;;;;;;;4974456;28;20503;-80
2023/03/20 04:47:58;;;;;;;0.20;0.20;;;;;;;;;;4970347;28;20034;-80
2023/03/20 04:50:24;;;;;;;0.20;0.10;;;;;;;;;;4974003;28;20169;-83
2023/03/20 04:52:50;;;;;;;0.20;0.10;;;;;;;;;;4961137;28;20038;-79
2023/03/20 04:55:16;;;;;;;0.20;0.10;;;;;;;;;;4972815;28;20046;-80
2023/03/20 04:57:42;;;;;;;0.30;0.30;;;;;;;;;;4965110;28;20031;-82
2023/03/20 05:00:09;;;;;;;0.20;0.10;;;;;;;;;;4955308;28;20073;-79
2023/03/20 05:02:36;;;;;;;0.20;0.10;;;;;;;;;;4948899;28;20140;-82
2023/03/20 05:05:02;;;;;;;0.20;0.20;;;;;;;;;;4967076;28;20039;-79
2023/03/20 05:07:28;;;;;;;0.20;0.10;;;;;;;;;;4948413;28;20053;-81
2023/03/20 05:09:54;;;;;;;1.58;0.38;;;;;;;;;;4966782;28;20450;-79
2023/03/20 05:12:21;;;;;;;0.52;0.17;;;;;;;;;;4965764;28;20045;-79
2023/03/20 05:14:47;;;;;;;0.32;0.20;;;;;;;;;;4969706;28;20081;-79
2023/03/20 05:17:13;;;;;;;0.20;0.10;;;;;;;;;;4967775;28;20038;-81
2023/03/20 05:19:41;;;;;;;0.20;0.10;;;;;;;;;;4970546;28;20458;-79
2023/03/20 05:22:08;;;;;;;0.20;0.20;;;;;;;;;;4967354;28;20418;-82
2023/03/20 05:24:34;;;;;;;0.20;0.10;;;;;;;;;;4961228;28;20050;-79
2023/03/20 05:27:00;;;;;;;0.20;0.10;;;;;;;;;;4953631;28;20049;-82
2023/03/20 05:29:26;;;;;;;0.40;0.30;;;;;;;;;;4954124;28;20238;-80
2023/03/20 05:31:54;;;;;;;0.20;0.00;;;;;;;;;;4957704;28;20046;-82
2023/03/20 05:34:20;;;;;;;0.35;0.32;;;;;;;;;;4946668;28;20553;-81
2023/03/20 05:36:46;;;;;;;0.22;0.22;;;;;;;;;;4945442;28;20129;-81
2023/03/20 05:39:12;;;;;;;0.20;0.10;;;;;;;;;;4941283;28;20098;-80
2023/03/20 05:41:38;;;;;;;0.45;0.45;;;;;;;;;;4938987;28;20038;-80
2023/03/20 05:44:04;;;;;;;0.22;0.20;;;;;;;;;;4960612;28;20061;-81
2023/03/20 05:46:30;;;;;;;0.20;0.10;;;;;;;;;;4949679;28;20358;-79
2023/03/20 05:48:56;;;;;;;0.30;0.25;;;;;;;;;;4965719;28;20662;-80
2023/03/20 05:51:22;;;;;;;0.20;0.10;;;;;;;;;;4965286;28;20046;-79
2023/03/20 05:53:49;;;;;;;0.20;0.10;;;;;;;;;;4949537;28;20746;-81
2023/03/20 05:56:15;;;;;;;0.43;0.43;;;;;;;;;;4962722;28;20046;-78
2023/03/20 05:58:41;;;;;;;0.20;0.10;;;;;;;;;;4966344;28;20542;-79
2023/03/20 06:01:07;;;;;;;0.30;0.22;;;;;;;;;;4967347;28;20541;-80
2023/03/20 06:03:33;;;;;;;0.52;0.50;;;;;;;;;;4963807;28;20094;-81
2023/03/20 06:05:59;;;;;;;0.20;0.10;;;;;;;;;;4962319;28;20478;-79
2023/03/20 06:08:25;;;;;;;0.20;0.10;;;;;;;;;;4966082;28;20064;-77
2023/03/20 06:10:51;;;;;;;0.20;0.10;;;;;;;;;;4960303;28;20049;-79
2023/03/20 06:13:17;;;;;;;0.90;0.68;;;;;;;;;;4963703;28;20128;-79
2023/03/20 06:15:44;;;;;;;0.20;0.15;;;;;;;;;;4959764;28;20153;-79
2023/03/20 06:18:10;;;;;;;0.20;0.10;;;;;;;;;;4968827;28;20039;-81
2023/03/20 06:20:36;;;;;;;0.28;0.28;;;;;;;;;;4973489;28;20089;-79
2023/03/20 06:23:02;;;;;;;1.00;0.30;;;;;;;;;;4976439;28;20507;-79
2023/03/20 06:25:28;;;;;;;1.48;0.47;;;;;;;;;;4967176;28;20046;-80
2023/03/20 06:27:54;;;;;;;0.32;0.30;;;;;;;;;;4965166;28;20034;-81
2023/03/20 06:30:20;;;;;;;0.20;0.10;;;;;;;;;;4973568;28;20069;-80
2023/03/20 06:32:46;;;;;;;0.20;0.10;;;;;;;;;;4977708;28;20075;-81
2023/03/20 06:35:13;;;;;;;0.20;0.10;;;;;;;;;;4982165;28;20043;-81
2023/03/20 06:37:39;;;;;;;1.10;0.85;;;;;;;;;;4976538;28;20279;-81
2023/03/20 06:40:05;;;;;;;1.95;0.70;;;;;;;;;;4985277;28;20034;-84
2023/03/20 06:42:31;;;;;;;0.85;0.17;;;;;;;;;;4961123;28;20392;-80
2023/03/20 06:44:57;;;;;;;0.20;0.20;;;;;;;;;;4969905;28;20106;-81
2023/03/20 06:47:23;;;;;;;0.25;0.20;;;;;;;;;;4970215;28;20074;-81
2023/03/20 06:49:49;;;;;;;0.20;0.15;;;;;;;;;;4949337;28;20054;-81
2023/03/20 06:52:16;;;;;;;0.20;0.10;;;;;;;;;;4952937;28;20513;-82
2023/03/20 06:54:43;;;;;;;0.20;0.10;;;;;;;;;;4965007;28;20053;-83
2023/03/20 06:57:09;;;;;;;0.63;0.63;;;;;;;;;;4968133;28;20783;-86
2023/03/20 06:59:36;;;;;;;0.20;0.20;;;;;;;;;;4945802;28;20201;-81
2023/03/20 07:02:02;;;;;;;0.65;0.35;;;;;;;;;;4979619;28;20042;-81
2023/03/20 07:04:28;;;;;;;0.47;0.40;;;;;;;;;;4958790;28;20038;-83
2023/03/20 07:06:55;;;;;;;0.28;0.28;;;;;;;;;;4967432;28;20410;-80
2023/03/20 07:09:22;;;;;;;0.20;0.10;;;;;;;;;;4965326;28;20059;-81
2023/03/20 07:11:48;;;;;;;0.20;0.10;;;;;;;;;;4966732;28;20057;-81
2023/03/20 07:14:14;;;;;;;0.20;0.10;;;;;;;;;;4966945;28;20038;-80
2023/03/20 07:16:41;;;;;;;0.50;0.50;;;;;;;;;;4966459;28;20069;-84
2023/03/20 07:19:07;;;;;;;1.08;0.52;;;;;;;;;;4963457;28;20066;-82
2023/03/20 07:21:33;;;;;;;0.25;0.15;;;;;;;;;;4967818;28;20059;-81
2023/03/20 07:24:00;;;;;;;0.50;0.50;;;;;;;;;;4960854;28;20042;-81
2023/03/20 07:26:26;;;;;;;0.20;0.13;;;;;;;;;;4960819;28;20447;-81
2023/03/20 07:28:52;;;;;;;0.93;0.40;;;;;;;;;;4964833;28;20073;-81
2023/03/20 07:31:20;;;;;;;0.20;0.20;;;;;;;;;;4965461;28;20080;-82
2023/03/20 07:33:46;;;;;;;1.40;0.75;;;;;;;;;;4963749;28;20176;-84
2023/03/20 07:36:12;;;;;;;0.20;0.10;;;;;;;;;;4949411;28;20578;-80
2023/03/20 07:38:38;;;;;;;0.20;0.10;;;;;;;;;;4953237;28;20408;-82
2023/03/20 07:41:04;;;;;;;0.40;0.28;;;;;;;;;;4964228;28;20054;-80
2023/03/20 07:43:30;;;;;;;0.20;0.20;;;;;;;;;;4961182;28;20043;-80
2023/03/20 07:45:56;;;;;;;0.20;0.10;;;;;;;;;;4965370;28;20787;-81
2023/03/20 07:48:22;;;;;;;1.40;1.17;;;;;;;;;;4964351;28;20783;-78
2023/03/20 07:50:49;;;;;;;0.20;0.10;;;;;;;;;;4963346;28;20129;-78
2023/03/20 07:53:15;;;;;;;0.30;0.25;;;;;;;;;;4967298;28;20064;-79
2023/03/20 07:55:41;;;;;;;0.38;0.35;;;;;;;;;;4968555;28;20046;-80
2023/03/20 07:58:07;;;;;;;0.20;0.10;;;;;;;;;;4975616;28;20112;-77
2023/03/20 08:00:33;;;;;;;0.80;0.63;;;;;;;;;;4961448;28;20042;-78
2023/03/20 08:02:59;;;;;;;0.20;0.20;;;;;;;;;;4966799;28;20218;-80
2023/03/20 08:05:26;;;;;;;0.20;0.10;;;;;;;;;;4959452;28;20614;-80
2023/03/20 08:07:52;;;;;;;0.20;0.10;;;;;;;;;;4967152;28;20101;-81
2023/03/20 08:10:18;;;;;;;0.20;0.10;;;;;;;;;;4965885;28;20045;-79
2023/03/20 08:12:44;;;;;;;0.20;0.20;;;;;;;;;;4974963;28;20041;-80
2023/03/20 08:15:10;;;;;;;0.70;0.55;;;;;;;;;;4966775;28;20038;-80
2023/03/20 08:17:36;;;;;;;0.20;0.15;;;;;;;;;;4995921;28;20054;-81
2023/03/20 08:20:03;;;;;;;0.38;0.30;;;;;;;;;;4974363;28;20468;-80
2023/03/20 08:22:29;;;;;;;0.20;0.10;;;;;;;;;;4973416;28;20045;-80
2023/03/20 08:24:55;;;;;;;0.20;0.20;;;;;;;;;;4971103;28;20407;-82
2023/03/20 08:27:21;;;;;;;0.68;0.63;;;;;;;;;;4961572;28;20049;-81
2023/03/20 08:29:47;;;;;;;0.20;0.10;;;;;;;;;;4958559;28;20042;-79
2023/03/20 08:32:13;;;;;;;0.32;0.32;;;;;;;;;;4974009;28;20042;-82
2023/03/20 08:34:39;;;;;;;0.20;0.10;;;;;;;;;;4967209;28;20057;-80
2023/03/20 08:37:06;;;;;;;0.47;0.30;;;;;;;;;;4954853;28;20116;-81
2023/03/20 08:39:32;;;;;;;0.20;0.10;;;;;;;;;;4971323;28;20066;-84
2023/03/20 08:41:58;;;;;;;0.20;0.20;;;;;;;;;;4961745;28;20034;-81
2023/03/20 08:44:25;;;;;;;0.63;0.20;;;;;;;;;;4977061;28;20042;-83
2023/03/20 08:46:53;;;;;;;0.20;0.10;;;;;;;;;;4981728;28;20414;-81
2023/03/20 08:49:19;;;;;;;0.60;0.60;;;;;;;;;;4976277;28;20511;-82
2023/03/20 08:51:45;;;;;;;0.20;0.10;;;;;;;;;;4960375;28;20038;-80
2023/03/20 08:54:13;;;;;;;0.20;0.10;;;;;;;;;;4974936;28;20138;-78
2023/03/20 08:56:39;;;;;;;0.30;0.28;;;;;;;;;;4973534;28;20507;-83
2023/03/20 08:59:05;;;;;;;0.52;0.52;;;;;;;;;;4960168;28;20043;-81
2023/03/20 09:01:31;;;;;;;3.13;0.30;;;;;;;;;;4960997;28;20046;-80
2023/03/20 09:03:57;;;;;;;0.25;0.20;;;;;;;;;;4974017;28;20046;-80
2023/03/20 09:06:23;;;;;;;0.20;0.10;;;;;;;;;;4966863;28;20434;-81
2023/03/20 09:08:49;;;;;;;0.20;0.20;;;;;;;;;;4975553;28;20053;-81
2023/03/20 09:11:16;;;;;;;0.20;0.20;;;;;;;;;;4973791;28;21049;-79
2023/03/20 09:13:42;;;;;;;0.20;0.10;;;;;;;;;;4975223;28;20042;-80
2023/03/20 09:16:08;;;;;;;0.20;0.17;;;;;;;;;;4980116;28;20422;-83
2023/03/20 09:18:34;;;;;;;0.20;0.10;;;;;;;;;;4975067;28;20077;-82
2023/03/20 09:21:00;;;;;;;0.40;0.40;;;;;;;;;;4973450;28;20080;-82
2023/03/20 09:23:26;;;;;;;1.75;0.35;;;;;;;;;;4975493;28;20035;-82
2023/03/20 09:25:52;;;;;;;0.32;0.25;;;;;;;;;;4974764;28;20506;-80
2023/03/20 09:28:18;;;;;;;0.30;0.30;;;;;;;;;;4970696;28;20035;-81
2023/03/20 09:30:44;;;;;;;0.20;0.10;;;;;;;;;;4975045;28;20031;-81
2023/03/20 09:33:11;;;;;;;0.20;0.10;;;;;;;;;;4974602;28;20069;-81
2023/03/20 09:35:37;;;;;;;0.20;0.10;;;;;;;;;;4964378;28;20065;-82
2023/03/20 09:38:03;;;;;;;0.20;0.10;;;;;;;;;;4960559;28;20042;-80
2023/03/20 09:40:31;;;;;;;0.30;0.30;;;;;;;;;;4977523;28;20114;-79
2023/03/20 09:43:02;;;;;;;0.20;0.10;;;;;;;;;;4974868;28;20485;-81
2023/03/20 09:45:47;;;;;;;0.20;0.10;;;;;;;;;;4971528;28;20102;-84
2023/03/20 09:48:13;;;;;;;0.38;0.20;;;;;;;;;;4975700;28;20060;-83
2023/03/20 09:50:39;;;;;;;1.15;0.22;;;;;;;;;;4974271;28;20607;-82
2023/03/20 09:53:06;;;;;;;0.20;0.10;;;;;;;;;;4972145;28;20039;-81
2023/03/20 09:55:40;;;;;;;0.38;0.32;;;;;;;;;;4960801;28;20034;-85
2023/03/20 09:58:09;;;;;;;0.30;0.30;;;;;;;;;;4979887;28;20039;-83
2023/03/20 10:00:35;;;;;;;0.20;0.10;;;;;;;;;;4972184;28;20039;-80
2023/03/20 10:03:07;;;;;;;0.20;0.10;;;;;;;;;;4974752;28;22358;-83
2023/03/20 10:05:38;;;;;;;0.20;0.10;;;;;;;;;;4952511;28;20125;-80
2023/03/20 10:08:06;;;;;;;2.28;1.08;;;;;;;;;;4973320;28;20507;-80
2023/03/20 10:10:53;;;;;;;0.20;0.10;;;;;;;;;;4978349;28;20575;-85
2023/03/20 10:13:38;;;;;;;0.20;0.10;;;;;;;;;;4963702;28;20109;-80
2023/03/20 10:16:23;;;;;;;0.20;0.20;;;;;;;;;;4971522;28;20042;-80
2023/03/20 10:18:55;;;;;;;0.20;0.08;;;;;;;;;;4960210;28;20050;-81
2023/03/20 10:21:24;;;;;;;0.20;0.10;;;;;;;;;;4978195;28;20117;-79
2023/03/20 10:23:59;;;;;;;0.25;0.25;;;;;;;;;;4977761;28;20055;-78
2023/03/20 10:26:26;;;;;;;0.22;0.20;;;;;;;;;;4974859;28;20065;-80
2023/03/20 10:28:59;;;;;;;0.45;0.45;;;;;;;;;;4969438;28;20072;-82
2023/03/20 10:31:44;;;;;;;0.82;0.63;;;;;;;;;;4971188;28;20034;-80
2023/03/20 10:34:10;;;;;;;1.88;1.75;;;;;;;;;;4971099;28;20647;-83
2023/03/20 10:36:46;;;;;;;0.40;0.32;;;;;;;;;;4971138;28;20042;-82
2023/03/20 10:39:21;;;;;;;1.00;0.73;;;;;;;;;;4971188;28;20582;-80
2023/03/20 10:41:52;;;;;;;0.73;0.65;;;;;;;;;;4984182;23;20049;-75
2023/03/20 10:44:21;;;;;;;0.20;0.10;;;;;;;;;;4972727;28;20562;-77
2023/03/20 10:46:51;;;;;;;0.20;0.10;;;;;;;;;;4981712;28;20594;-75
2023/03/20 10:49:19;;;;;;;0.40;0.40;;;;;;;;;;4992026;28;20573;-76
2023/03/20 10:51:48;;;;;;;0.73;0.40;;;;;;;;;;4986644;28;20040;-75
2023/03/20 10:54:20;;;;;;;0.20;0.10;;;;;;;;;;4974619;28;20050;-74
2023/03/20 10:56:48;;;;;;;0.38;0.25;;;;;;;;;;4969378;28;20035;-75
2023/03/20 10:59:20;;;;;;;1.27;0.57;;;;;;;;;;4957389;28;20046;-73
2023/03/20 11:01:46;;;;;;;0.20;0.20;;;;;;;;;;4963398;28;20042;-77
2023/03/20 11:04:12;;;;;;;0.20;0.20;;;;;;;;;;4968818;28;20462;-75
2023/03/20 11:06:43;;;;;;;0.20;0.10;;;;;;;;;;4971334;28;20030;-75
2023/03/20 11:09:18;;;;;;;0.73;0.55;;;;;;;;;;4973805;28;20077;-76
2023/03/20 11:11:46;;;;;;;0.38;0.38;;;;;;;;;;4978385;28;20038;-75
2023/03/20 11:14:22;;;;;;;0.82;0.50;;;;;;;;;;4971167;28;20058;-75
2023/03/20 11:16:50;;;;;;;0.60;0.55;;;;;;;;;;4963368;28;20116;-75
2023/03/20 11:19:18;;;;;;;0.20;0.20;;;;;;;;;;4949607;28;20038;-76
2023/03/20 11:21:46;;;;;;;0.20;0.10;;;;;;;;;;4963470;28;20091;-76
2023/03/20 11:24:21;;;;;;;0.20;0.10;;;;;;;;;;4955516;28;20073;-73
2023/03/20 11:26:48;;;;;;;0.20;0.20;;;;;;;;;;4972625;28;20045;-75
2023/03/20 11:29:26;;;;;;;0.30;0.28;;;;;;;;;;4951981;28;20540;-76
2023/03/20 11:31:52;;;;;;;0.20;0.10;;;;;;;;;;4978198;28;20046;-76
2023/03/20 11:34:18;;;;;;;1.77;0.95;;;;;;;;;;4959599;28;20046;-76
2023/03/20 11:36:46;;;;;;;0.20;0.10;;;;;;;;;;4975739;28;20556;-76
2023/03/20 11:39:14;;;;;;;0.20;0.10;;;;;;;;;;4957863;28;20742;-76
2023/03/20 11:41:49;;;;;;;0.35;0.30;;;;;;;;;;4971997;28;20046;-75
2023/03/20 11:44:26;;;;;;;0.20;0.10;;;;;;;;;;4976962;28;20392;-75
2023/03/20 11:46:56;;;;;;;0.20;0.15;;;;;;;;;;4975549;28;20415;-75
2023/03/20 11:49:32;;;;;;;0.50;0.43;;;;;;;;;;4967616;28;20080;-75
2023/03/20 11:52:20;;;;;;;0.38;0.38;;;;;;;;;;4964593;28;20046;-77
2023/03/20 11:54:48;;;;;;;0.20;0.10;;;;;;;;;;4971130;28;20052;-76
2023/03/20 11:57:31;;;;;;;0.65;0.65;;;;;;;;;;4979154;28;20042;-77
2023/03/20 11:59:57;;;;;;;0.20;0.20;;;;;;;;;;4978265;28;20034;-77
2023/03/20 12:02:25;;;;;;;0.20;0.20;;;;;;;;;;4969346;28;20042;-77
2023/03/20 12:04:51;;;;;;;0.25;0.25;;;;;;;;;;4971151;28;20050;-77
2023/03/20 12:07:20;;;;;;;0.22;0.13;;;;;;;;;;4969045;28;20042;-76
2023/03/20 12:09:46;;;;;;;0.73;0.73;;;;;;;;;;4973977;28;20100;-76
2023/03/20 12:12:12;;;;;;;0.20;0.13;;;;;;;;;;4979493;28;20050;-76
2023/03/20 12:15:00;;;;;;;0.20;0.10;;;;;;;;;;4962214;28;20045;-77
2023/03/20 12:17:38;;;;;;;0.20;0.10;;;;;;;;;;4972148;28;20058;-76
2023/03/20 12:20:24;;;;;;;0.20;0.20;;;;;;;;;;4963893;28;20047;-76
2023/03/20 12:22:59;;;;;;;0.20;0.10;;;;;;;;;;4955957;28;20088;-76
2023/03/20 12:25:27;;;;;;;0.57;0.57;;;;;;;;;;4974073;28;20525;-76
2023/03/20 12:28:11;;;;;;;0.80;0.45;;;;;;;;;;4959949;28;20606;-76
2023/03/20 12:30:49;;;;;;;0.65;0.57;;;;;;;;;;4972237;28;20434;-76
2023/03/20 12:33:31;;;;;;;0.20;0.13;;;;;;;;;;4976937;28;20116;-77
2023/03/20 12:35:57;;;;;;;0.20;0.10;;;;;;;;;;4977116;28;20046;-76
2023/03/20 12:38:28;;;;;;;1.15;1.05;;;;;;;;;;4969657;28;20085;-77
2023/03/20 12:40:56;;;;;;;0.20;0.10;;;;;;;;;;4953807;28;20073;-78
2023/03/20 12:43:26;;;;;;;0.20;0.10;;;;;;;;;;4970023;28;20038;-77
2023/03/20 12:46:08;;;;;;;0.20;0.10;;;;;;;;;;4970502;28;20125;-74
2023/03/20 12:48:46;;;;;;;0.20;0.10;;;;;;;;;;4976779;28;20041;-75
2023/03/20 12:51:12;;;;;;;0.20;0.10;;;;;;;;;;4972769;28;20422;-75
2023/03/20 12:53:49;;;;;;;0.30;0.28;;;;;;;;;;4990393;28;20034;-76
2023/03/20 12:56:15;;;;;;;0.20;0.10;;;;;;;;;;4971017;28;20046;-76
2023/03/20 12:58:47;;;;;;;0.20;0.10;;;;;;;;;;4969125;28;20418;-76
2023/03/20 13:01:19;;;;;;;0.22;0.10;;;;;;;;;;4960069;28;20065;-75
2023/03/20 13:04:01;;;;;;;0.20;0.10;;;;;;;;;;4960151;28;20049;-75
2023/03/20 13:06:35;;;;;;;0.20;0.10;;;;;;;;;;4969953;28;20495;-76
2023/03/20 13:09:07;;;;;;;0.20;0.10;;;;;;;;;;4970484;28;20117;-77
2023/03/20 13:11:36;;;;;;;0.20;0.10;;;;;;;;;;4943584;28;20442;-75
2023/03/20 13:14:10;;;;;;;0.20;0.10;;;;;;;;;;4950240;28;20050;-77
2023/03/20 13:16:56;;;;;;;0.20;0.10;;;;;;;;;;4971176;28;20517;-76
2023/03/20 13:19:31;;;;;;;0.20;0.10;;;;;;;;;;4974597;28;20039;-77
2023/03/20 13:22:10;;;;;;;0.20;0.10;;;;;;;;;;4977340;28;20066;-76
2023/03/20 13:24:40;;;;;;;0.20;0.10;;;;;;;;;;4963931;28;20040;-75
2023/03/20 13:27:12;;;;;;;0.20;0.10;;;;;;;;;;4966777;28;20038;-76
2023/03/20 13:29:41;;;;;;;0.20;0.10;;;;;;;;;;4963042;28;20411;-76
2023/03/20 13:32:07;;;;;;;0.20;0.10;;;;;;;;;;4969973;28;20046;-77
2023/03/20 13:34:36;;;;;;;0.20;0.10;;;;;;;;;;4960093;28;20038;-77
2023/03/20 13:37:02;;;;;;;0.20;0.10;;;;;;;;;;4974231;28;20039;-77
2023/03/20 13:39:31;;;;;;;0.20;0.10;;;;;;;;;;4968399;28;20093;-76
2023/03/20 13:41:58;;;;;;;0.20;0.10;;;;;;;;;;4952198;28;20102;-77
2023/03/20 13:44:27;;;;;;;0.20;0.10;;;;;;;;;;4966739;28;20038;-77
2023/03/20 13:47:04;;;;;;;0.22;0.22;;;;;;;;;;4970737;28;20034;-77
2023/03/20 13:49:38;;;;;;;0.30;0.20;;;;;;;;;;4958457;28;20362;-75
2023/03/20 13:52:10;;;;;;;0.20;0.10;;;;;;;;;;4972115;28;20478;-75
2023/03/20 13:54:55;;;;;;;0.20;0.10;;;;;;;;;;4980315;28;20104;-73
2023/03/20 13:57:40;;;;;;;1.02;0.47;;;;;;;;;;4967877;28;20039;-74
2023/03/20 14:00:12;;;;;;;1.08;0.80;;;;;;;;;;4961564;28;20582;-74
2023/03/20 14:02:38;;;;;;;;;;;;;;;;;;4961942;28;20049;-74
2023/03/20 14:05:10;;;;;;;0.25;0.25;;;;;;;;;;4959044;28;19918;-74
2023/03/20 14:07:38;;;;;;;0.20;0.10;;;;;;;;;;4947068;28;20080;-75
2023/03/20 14:10:22;;;;;;;0.20;0.10;;;;;;;;;;4986229;28;20039;-74
2023/03/20 14:13:04;;;;;;;0.20;0.10;;;;;;;;;;4971659;28;20057;-74
2023/03/20 14:15:34;;;;;;;0.20;0.10;;;;;;;;;;4970084;28;20133;-74
2023/03/20 14:18:04;;;;;;;0.28;0.17;;;;;;;;;;4971528;28;20539;-74
2023/03/20 14:20:36;;;;;;;0.20;0.10;;;;;;;;;;4971320;28;20196;-74
2023/03/20 14:23:03;;;;;;;0.20;0.10;;;;;;;;;;4970163;28;20046;-76
2023/03/20 14:25:34;;;;;;;0.20;0.10;;;;;;;;;;4975493;28;20042;-75
2023/03/20 14:28:07;;;;;;;0.20;0.10;;;;;;;;;;4989474;28;20208;-74
2023/03/20 14:30:33;;;;;;;;;;;;;;;;;;4972903;28;20193;-73
2023/03/20 14:33:19;;;;;;;0.20;0.10;;;;;;;;;;4955492;28;20483;-74
2023/03/20 14:35:48;;;;;;;0.20;0.10;;;;;;;;;;4957286;28;20053;-74
2023/03/20 14:38:14;;;;;;;0.20;0.20;;;;;;;;;;4969594;28;20057;-75
2023/03/20 14:41:01;;;;;;;0.20;0.10;;;;;;;;;;4967751;28;20054;-74
2023/03/20 14:43:40;;;;;;;0.20;0.10;;;;;;;;;;4966155;28;20128;-74
2023/03/20 14:46:08;;;;;;;0.28;0.28;;;;;;;;;;4951913;28;20097;-75
2023/03/20 14:48:41;;;;;;;0.20;0.10;;;;;;;;;;4972867;28;20302;-75
2023/03/20 14:51:19;;;;;;;0.20;0.10;;;;;;;;;;4952922;28;20050;-74
2023/03/20 14:53:56;;;;;;;0.20;0.10;;;;;;;;;;4967885;28;21200;-76
2023/03/20 14:56:30;;;;;;;0.20;0.10;;;;;;;;;;4972437;28;20479;-77